Time;durP1;ratioP1;P1;durP2;ratioP2;P2;SDS_P1;SDS_P2;PMS_P1;PMS_P2;Temp;Humidity;BMP_temperature;BMP_pressure;BME280_temperature;BME280_humidity;BME280_pressure;Samples;Min_cycle;Max_cycle;Signal;HPM_P1;HPM_P2
2022/06/04 00:01:12;;;;;;;2.10;1.40;;;;;;;;;;5109988;27;20108;-73
2022/06/04 00:03:39;;;;;;;2.38;1.50;;;;;;;;;;5104558;28;20533;-74
2022/06/04 00:06:04;;;;;;;2.38;1.60;;;;;;;;;;5107401;27;20039;-76
2022/06/04 00:08:31;;;;;;;2.15;1.40;;;;;;;;;;5101412;28;20030;-73
2022/06/04 00:16:26;;;;;;;2.08;1.50;;;;;;;;;;5103594;28;20448;-77
2022/06/04 00:18:52;;;;;;;2.72;1.40;;;;;;;;;;5106362;28;20118;-75
2022/06/04 00:21:17;;;;;;;2.80;1.40;;;;;;;;;;5099200;28;20114;-74
2022/06/04 00:23:43;;;;;;;3.78;1.60;;;;;;;;;;5103225;27;20031;-74
2022/06/04 00:26:10;;;;;;;3.00;1.50;;;;;;;;;;5099300;28;20080;-74
2022/06/04 00:28:37;;;;;;;1.60;1.23;;;;;;;;;;5100743;28;20035;-74
2022/06/04 00:31:03;;;;;;;3.45;1.58;;;;;;;;;;5109836;27;20391;-76
2022/06/04 00:33:28;;;;;;;2.17;1.27;;;;;;;;;;5106431;27;20032;-74
2022/06/04 00:35:56;;;;;;;2.67;1.50;;;;;;;;;;5107405;27;20095;-75
2022/06/04 00:38:24;;;;;;;2.38;1.48;;;;;;;;;;5114396;27;20073;-75
2022/06/04 00:41:02;;;;;;;3.72;1.65;;;;;;;;;;5099067;27;20074;-77
2022/06/04 00:43:28;;;;;;;2.60;1.40;;;;;;;;;;5100815;28;20028;-75
2022/06/04 00:46:15;;;;;;;2.17;1.40;;;;;;;;;;5099734;27;20517;-74
2022/06/04 00:48:42;;;;;;;8.23;1.60;;;;;;;;;;5100118;27;20488;-76
2022/06/04 00:51:07;;;;;;;2.60;1.50;;;;;;;;;;5100386;27;20080;-73
2022/06/04 00:53:35;;;;;;;2.55;1.60;;;;;;;;;;5096754;27;20102;-75
2022/06/04 00:56:22;;;;;;;3.22;1.50;;;;;;;;;;5104050;28;20114;-75
2022/06/04 00:59:08;;;;;;;2.88;1.58;;;;;;;;;;5099939;28;20518;-74
2022/06/04 01:02:12;;;;;;;4.15;1.90;;;;;;;;;;5097047;27;20031;-73
2022/06/04 01:04:49;;;;;;;2.47;1.48;;;;;;;;;;5104864;28;20401;-73
2022/06/04 01:07:32;;;;;;;2.50;1.63;;;;;;;;;;5102616;28;20031;-76
2022/06/04 01:10:37;;;;;;;3.53;1.85;;;;;;;;;;5102918;27;20027;-76
2022/06/04 01:13:21;;;;;;;2.67;1.75;;;;;;;;;;5079425;27;20119;-75
2022/06/04 01:15:58;;;;;;;3.28;1.70;;;;;;;;;;5101659;28;20038;-77
2022/06/04 01:18:41;;;;;;;2.70;1.60;;;;;;;;;;5104597;28;20078;-75
2022/06/04 01:21:06;;;;;;;2.88;1.50;;;;;;;;;;5103630;27;20065;-74
2022/06/04 01:24:08;;;;;;;2.70;1.67;;;;;;;;;;5102342;28;20451;-77
2022/06/04 01:27:18;;;;;;;3.47;1.80;;;;;;;;;;5109926;27;20471;-76
2022/06/04 01:29:52;;;;;;;2.90;1.85;;;;;;;;;;5112950;27;21677;-75
2022/06/04 01:32:24;;;;;;;3.08;1.85;;;;;;;;;;5101332;28;20027;-75
2022/06/04 01:34:57;;;;;;;3.10;1.80;;;;;;;;;;5104009;28;20074;-74
2022/06/04 01:37:28;;;;;;;2.92;1.88;;;;;;;;;;5100255;27;20031;-75
2022/06/04 01:42:45;;;;;;;4.10;1.60;;;;;;;;;;5075171;28;20027;-75
2022/06/04 01:45:15;;;;;;;3.58;1.60;;;;;;;;;;5101233;28;20039;-74
2022/06/04 01:47:42;;;;;;;2.80;1.60;;;;;;;;;;5102335;28;20020;-77
2022/06/04 01:50:13;;;;;;;2.67;1.80;;;;;;;;;;5105853;27;20151;-74
2022/06/04 01:52:40;;;;;;;3.30;1.55;;;;;;;;;;5105311;27;20043;-76
2022/06/04 01:55:16;;;;;;;3.22;1.70;;;;;;;;;;5102570;28;20032;-76
2022/06/04 01:58:08;;;;;;;2.75;1.77;;;;;;;;;;5101362;28;20023;-74
2022/06/04 02:00:41;;;;;;;2.58;1.83;;;;;;;;;;5095022;28;20502;-76
2022/06/04 02:03:14;;;;;;;3.50;2.00;;;;;;;;;;5106391;28;20062;-77
2022/06/04 02:05:53;;;;;;;4.32;1.92;;;;;;;;;;5100244;28;20031;-74
2022/06/04 02:08:26;;;;;;;5.38;1.90;;;;;;;;;;5093852;28;20019;-74
2022/06/04 02:10:58;;;;;;;3.45;1.92;;;;;;;;;;5100867;28;20046;-73
2022/06/04 02:13:23;;;;;;;3.50;2.30;;;;;;;;;;5103777;27;20452;-76
2022/06/04 02:15:54;;;;;;;4.40;1.92;;;;;;;;;;5102220;27;20113;-74
2022/06/04 02:18:20;;;;;;;3.13;1.83;;;;;;;;;;5100357;28;20107;-74
2022/06/04 02:20:46;;;;;;;2.88;1.80;;;;;;;;;;5098326;28;20110;-77
2022/06/04 02:23:11;;;;;;;2.97;1.80;;;;;;;;;;5098910;28;20027;-73
2022/06/04 02:25:37;;;;;;;3.83;1.83;;;;;;;;;;5104069;28;20061;-74
2022/06/04 02:28:06;;;;;;;2.72;1.95;;;;;;;;;;5106052;28;20034;-73
2022/06/04 02:30:44;;;;;;;2.97;1.85;;;;;;;;;;5108763;28;20019;-76
2022/06/04 02:33:17;;;;;;;3.55;1.95;;;;;;;;;;5102725;28;20024;-73
2022/06/04 02:35:56;;;;;;;4.13;2.20;;;;;;;;;;5097693;28;20377;-74
2022/06/04 02:39:05;;;;;;;5.40;2.30;;;;;;;;;;5101059;28;20101;-75
2022/06/04 02:41:35;;;;;;;3.45;2.05;;;;;;;;;;5077660;28;20031;-75
2022/06/04 02:44:21;;;;;;;3.38;1.90;;;;;;;;;;5098149;28;20024;-73
2022/06/04 02:46:57;;;;;;;3.97;2.28;;;;;;;;;;5110775;27;20164;-75
2022/06/04 02:49:30;;;;;;;3.05;2.10;;;;;;;;;;5107228;27;20825;-76
2022/06/04 02:51:57;;;;;;;4.60;2.10;;;;;;;;;;5113984;27;20391;-77
2022/06/04 02:54:33;;;;;;;3.58;2.00;;;;;;;;;;5104174;27;20023;-77
2022/06/04 02:56:59;;;;;;;3.17;2.00;;;;;;;;;;5108057;27;20023;-74
2022/06/04 02:59:27;;;;;;;3.25;2.20;;;;;;;;;;5107830;27;20033;-75
2022/06/04 03:01:57;;;;;;;4.15;2.40;;;;;;;;;;5106281;27;20032;-74
2022/06/04 03:04:22;;;;;;;2.92;2.08;;;;;;;;;;5102849;27;20024;-75
2022/06/04 03:06:48;;;;;;;3.42;2.17;;;;;;;;;;5111436;27;20024;-73
2022/06/04 03:09:16;;;;;;;4.28;2.20;;;;;;;;;;5104390;27;20038;-74
2022/06/04 03:11:48;;;;;;;4.15;2.03;;;;;;;;;;5118980;27;20028;-74
2022/06/04 03:14:15;;;;;;;3.70;2.08;;;;;;;;;;5100625;27;20055;-75
2022/06/04 03:16:42;;;;;;;3.33;2.25;;;;;;;;;;5099912;27;20667;-75
2022/06/04 03:19:08;;;;;;;3.40;2.40;;;;;;;;;;5106947;27;20034;-77
2022/06/04 03:21:38;;;;;;;7.88;2.50;;;;;;;;;;5103785;27;20055;-75
2022/06/04 03:24:05;;;;;;;3.70;2.53;;;;;;;;;;5100789;27;20027;-73
2022/06/04 03:26:30;;;;;;;3.10;1.95;;;;;;;;;;5101367;27;20040;-74
2022/06/04 03:28:56;;;;;;;4.50;2.47;;;;;;;;;;5102939;27;20032;-76
2022/06/04 03:31:22;;;;;;;3.78;2.28;;;;;;;;;;5100262;28;20015;-77
2022/06/04 03:33:47;;;;;;;4.65;2.50;;;;;;;;;;5108619;27;20032;-75
2022/06/04 03:36:13;;;;;;;4.60;2.40;;;;;;;;;;5100024;27;20471;-73
2022/06/04 03:38:38;;;;;;;3.90;2.20;;;;;;;;;;5112008;27;20105;-74
2022/06/04 03:41:04;;;;;;;4.72;2.88;;;;;;;;;;5104161;27;20015;-74
2022/06/04 03:43:29;;;;;;;4.35;2.40;;;;;;;;;;5101962;27;20030;-73
2022/06/04 03:45:54;;;;;;;3.28;2.15;;;;;;;;;;5103745;27;20421;-76
2022/06/04 03:48:20;;;;;;;4.20;2.33;;;;;;;;;;5103087;27;20028;-77
2022/06/04 03:50:45;;;;;;;3.35;2.20;;;;;;;;;;5095757;27;20032;-75
2022/06/04 03:53:11;;;;;;;4.60;2.50;;;;;;;;;;5105291;28;20485;-74
2022/06/04 03:55:36;;;;;;;4.22;2.45;;;;;;;;;;5105805;27;20368;-77
2022/06/04 03:58:01;;;;;;;4.00;2.72;;;;;;;;;;5102966;27;20058;-75
2022/06/04 04:00:37;;;;;;;4.95;2.33;;;;;;;;;;5104559;27;20115;-75
2022/06/04 04:03:17;;;;;;;3.67;2.22;;;;;;;;;;5098970;27;20353;-75
2022/06/04 04:05:52;;;;;;;3.70;2.47;;;;;;;;;;5104226;27;20498;-76
2022/06/04 04:08:20;;;;;;;3.95;2.38;;;;;;;;;;5104794;27;20399;-74
2022/06/04 04:10:45;;;;;;;4.32;2.53;;;;;;;;;;5102574;27;20480;-76
2022/06/04 04:13:13;;;;;;;3.33;2.08;;;;;;;;;;5098685;27;20028;-74
2022/06/04 04:15:39;;;;;;;3.92;2.38;;;;;;;;;;5105670;27;20023;-76
2022/06/04 04:18:06;;;;;;;4.35;2.67;;;;;;;;;;5104469;27;20046;-75
2022/06/04 04:20:34;;;;;;;3.45;2.30;;;;;;;;;;5106846;27;20031;-75
2022/06/04 04:23:00;;;;;;;5.00;3.00;;;;;;;;;;5097124;27;20023;-75
2022/06/04 04:25:28;;;;;;;6.13;2.65;;;;;;;;;;5099989;27;20149;-74
2022/06/04 04:27:54;;;;;;;3.58;2.50;;;;;;;;;;5105350;27;20027;-75
2022/06/04 04:30:23;;;;;;;4.68;2.80;;;;;;;;;;5108596;27;20065;-75
2022/06/04 04:32:49;;;;;;;4.50;2.45;;;;;;;;;;5104359;27;20023;-73
2022/06/04 04:35:24;;;;;;;5.88;2.80;;;;;;;;;;5100692;27;20568;-74
2022/06/04 04:37:50;;;;;;;4.43;2.85;;;;;;;;;;5101391;27;20036;-74
2022/06/04 04:40:18;;;;;;;6.43;2.70;;;;;;;;;;5102399;28;20034;-74
2022/06/04 04:42:44;;;;;;;4.82;3.00;;;;;;;;;;5101610;27;20072;-75
2022/06/04 04:45:10;;;;;;;4.20;2.47;;;;;;;;;;5106323;28;20473;-76
2022/06/04 04:47:37;;;;;;;3.95;2.67;;;;;;;;;;5101612;27;20488;-75
2022/06/04 04:50:04;;;;;;;4.88;2.85;;;;;;;;;;5100386;27;20110;-74
2022/06/04 04:52:29;;;;;;;4.85;2.80;;;;;;;;;;5104400;27;20019;-77
2022/06/04 04:54:55;;;;;;;5.07;3.00;;;;;;;;;;5105164;28;20072;-74
2022/06/04 04:57:20;;;;;;;5.88;3.10;;;;;;;;;;5100467;27;20473;-73
2022/06/04 04:59:46;;;;;;;6.05;2.67;;;;;;;;;;5097158;27;20035;-76
2022/06/04 05:02:11;;;;;;;6.90;3.03;;;;;;;;;;5098626;27;20039;-75
2022/06/04 05:04:37;;;;;;;8.50;3.28;;;;;;;;;;5114034;27;20108;-73
2022/06/04 05:07:02;;;;;;;6.15;3.28;;;;;;;;;;5108936;27;20027;-75
2022/06/04 05:09:28;;;;;;;5.32;3.20;;;;;;;;;;5095641;28;20034;-74
2022/06/04 05:11:53;;;;;;;6.65;3.38;;;;;;;;;;5106092;27;20169;-75
2022/06/04 05:14:19;;;;;;;6.03;3.25;;;;;;;;;;5101285;27;20025;-74
2022/06/04 05:16:45;;;;;;;5.78;3.13;;;;;;;;;;5100442;28;20530;-75
2022/06/04 05:19:11;;;;;;;5.45;3.22;;;;;;;;;;5100817;27;20027;-76
2022/06/04 05:21:46;;;;;;;7.18;3.38;;;;;;;;;;5106294;27;20035;-76
2022/06/04 05:24:24;;;;;;;5.35;3.58;;;;;;;;;;5098196;27;20062;-74
2022/06/04 05:26:50;;;;;;;5.82;3.30;;;;;;;;;;5115666;27;20023;-77
2022/06/04 05:29:16;;;;;;;6.03;3.42;;;;;;;;;;5096753;27;20038;-74
2022/06/04 05:31:41;;;;;;;5.35;3.50;;;;;;;;;;5103060;27;20111;-77
2022/06/04 05:34:08;;;;;;;6.38;3.17;;;;;;;;;;5101719;27;20039;-74
2022/06/04 05:36:35;;;;;;;4.75;3.15;;;;;;;;;;5106458;28;20019;-76
2022/06/04 05:39:02;;;;;;;6.43;3.80;;;;;;;;;;5102241;28;20020;-73
2022/06/04 05:41:27;;;;;;;7.30;3.40;;;;;;;;;;5100224;28;20425;-73
2022/06/04 05:43:53;;;;;;;6.05;3.40;;;;;;;;;;5099604;27;20035;-76
2022/06/04 05:46:20;;;;;;;6.25;3.20;;;;;;;;;;5103672;28;20506;-77
2022/06/04 05:48:46;;;;;;;5.57;3.58;;;;;;;;;;5104245;28;20545;-75
2022/06/04 05:51:18;;;;;;;5.25;3.20;;;;;;;;;;5102428;27;20475;-77
2022/06/04 05:53:44;;;;;;;7.03;3.80;;;;;;;;;;5101893;27;20983;-75
2022/06/04 05:56:15;;;;;;;8.02;3.90;;;;;;;;;;5099449;27;20032;-73
2022/06/04 05:58:40;;;;;;;6.28;3.95;;;;;;;;;;5096682;27;20031;-73
2022/06/04 06:01:06;;;;;;;6.30;3.92;;;;;;;;;;5104952;27;20027;-74
2022/06/04 06:03:32;;;;;;;5.03;3.20;;;;;;;;;;5103381;27;20027;-75
2022/06/04 06:05:58;;;;;;;5.25;3.55;;;;;;;;;;5096410;27;20031;-75
2022/06/04 06:08:24;;;;;;;6.88;3.90;;;;;;;;;;5102612;28;20034;-75
2022/06/04 06:10:49;;;;;;;5.20;3.17;;;;;;;;;;5098589;27;20023;-74
2022/06/04 06:13:15;;;;;;;6.53;3.50;;;;;;;;;;5094279;28;20390;-74
2022/06/04 06:15:40;;;;;;;5.22;3.38;;;;;;;;;;5100898;28;20615;-74
2022/06/04 06:18:07;;;;;;;6.95;4.05;;;;;;;;;;5100432;28;20530;-75
2022/06/04 06:20:33;;;;;;;7.28;3.50;;;;;;;;;;5098993;28;20039;-75
2022/06/04 06:22:58;;;;;;;5.57;3.55;;;;;;;;;;5101071;28;20027;-74
2022/06/04 06:25:25;;;;;;;5.03;3.40;;;;;;;;;;5099426;28;20388;-73
2022/06/04 06:27:50;;;;;;;7.22;3.53;;;;;;;;;;5097888;28;20476;-73
2022/06/04 06:30:16;;;;;;;6.28;3.55;;;;;;;;;;5100164;28;20020;-74
2022/06/04 06:32:42;;;;;;;5.78;3.35;;;;;;;;;;5105147;28;20032;-74
2022/06/04 06:35:08;;;;;;;7.93;3.97;;;;;;;;;;5102124;28;20518;-77
2022/06/04 06:37:34;;;;;;;9.30;4.07;;;;;;;;;;5103839;28;20039;-75
2022/06/04 06:40:00;;;;;;;9.23;3.80;;;;;;;;;;5101580;28;20120;-77
2022/06/04 06:42:25;;;;;;;6.68;3.65;;;;;;;;;;5100822;28;20493;-74
2022/06/04 06:44:52;;;;;;;9.43;3.90;;;;;;;;;;5105958;28;20043;-74
2022/06/04 06:47:19;;;;;;;6.22;3.83;;;;;;;;;;5105601;28;20494;-75
2022/06/04 06:49:44;;;;;;;5.28;3.90;;;;;;;;;;5102847;28;20036;-73
2022/06/04 06:52:10;;;;;;;6.38;3.78;;;;;;;;;;5104960;28;20477;-77
2022/06/04 06:54:37;;;;;;;6.80;3.83;;;;;;;;;;5098684;28;20471;-74
2022/06/04 06:57:05;;;;;;;7.07;3.90;;;;;;;;;;5100151;28;20024;-75
2022/06/04 06:59:30;;;;;;;6.60;3.90;;;;;;;;;;5104820;28;20019;-75
2022/06/04 07:01:57;;;;;;;6.03;3.78;;;;;;;;;;5102308;28;20123;-74
2022/06/04 07:04:23;;;;;;;6.63;3.80;;;;;;;;;;5105015;28;20020;-74
2022/06/04 07:06:58;;;;;;;6.63;3.72;;;;;;;;;;5103045;28;20364;-75
2022/06/04 07:09:26;;;;;;;6.85;4.63;;;;;;;;;;5095676;28;20046;-77
2022/06/04 07:11:52;;;;;;;7.25;3.45;;;;;;;;;;5099455;28;20027;-74
2022/06/04 07:14:19;;;;;;;7.72;3.97;;;;;;;;;;5094823;28;20365;-75
2022/06/04 07:16:46;;;;;;;6.93;3.63;;;;;;;;;;5120660;28;20377;-74
2022/06/04 07:19:14;;;;;;;4.72;3.20;;;;;;;;;;5096572;28;20028;-75
2022/06/04 07:21:39;;;;;;;7.05;3.70;;;;;;;;;;5104263;28;20441;-73
2022/06/04 07:24:05;;;;;;;5.15;3.67;;;;;;;;;;5104047;28;20044;-77
2022/06/04 07:26:31;;;;;;;8.30;4.38;;;;;;;;;;5104152;28;20020;-74
2022/06/04 07:28:56;;;;;;;6.65;3.78;;;;;;;;;;5101651;28;20043;-77
2022/06/04 07:31:22;;;;;;;6.07;3.85;;;;;;;;;;5099115;28;20114;-74
2022/06/04 07:33:52;;;;;;;6.38;3.60;;;;;;;;;;5102368;28;20026;-75
2022/06/04 07:36:23;;;;;;;9.00;4.07;;;;;;;;;;5113160;28;20050;-74
2022/06/04 07:38:49;;;;;;;8.63;3.78;;;;;;;;;;5098054;27;20034;-74
2022/06/04 07:41:27;;;;;;;6.28;3.78;;;;;;;;;;5104037;27;20028;-74
2022/06/04 07:43:52;;;;;;;9.10;3.95;;;;;;;;;;5102549;27;20458;-73
2022/06/04 07:46:19;;;;;;;6.95;4.20;;;;;;;;;;5105954;28;20110;-74
2022/06/04 07:48:46;;;;;;;6.68;4.60;;;;;;;;;;5100294;27;20081;-77
2022/06/04 07:51:12;;;;;;;6.47;3.60;;;;;;;;;;5100612;27;20081;-76
2022/06/04 07:53:37;;;;;;;6.88;3.63;;;;;;;;;;5103646;28;20031;-76
2022/06/04 07:56:08;;;;;;;6.47;4.05;;;;;;;;;;5105708;27;20035;-75
2022/06/04 07:58:34;;;;;;;7.82;4.60;;;;;;;;;;5105818;27;20027;-73
2022/06/04 08:01:01;;;;;;;7.00;3.92;;;;;;;;;;5111191;28;20058;-75
2022/06/04 08:03:27;;;;;;;5.57;3.75;;;;;;;;;;5105489;27;20026;-75
2022/06/04 08:05:53;;;;;;;7.28;4.18;;;;;;;;;;5107936;28;20036;-74
2022/06/04 08:08:19;;;;;;;7.10;4.30;;;;;;;;;;5106962;28;20115;-73
2022/06/04 08:10:49;;;;;;;7.65;3.92;;;;;;;;;;5109063;27;20478;-76
2022/06/04 08:13:31;;;;;;;7.80;4.00;;;;;;;;;;5114693;27;20470;-75
2022/06/04 08:15:57;;;;;;;6.82;4.88;;;;;;;;;;5108361;27;20027;-76
2022/06/04 08:18:24;;;;;;;8.88;4.57;;;;;;;;;;5108079;27;20031;-77
2022/06/04 08:20:49;;;;;;;7.78;4.20;;;;;;;;;;5112456;28;20031;-75
2022/06/04 08:23:15;;;;;;;6.80;4.35;;;;;;;;;;5108179;27;20085;-75
2022/06/04 08:25:43;;;;;;;7.57;4.05;;;;;;;;;;5108096;28;20032;-77
2022/06/04 08:28:09;;;;;;;7.78;4.45;;;;;;;;;;5107396;28;20046;-74
2022/06/04 08:30:36;;;;;;;7.90;4.22;;;;;;;;;;5101255;28;20028;-76
2022/06/04 08:33:01;;;;;;;8.50;4.45;;;;;;;;;;5102428;27;20058;-77
2022/06/04 08:35:27;;;;;;;6.93;4.25;;;;;;;;;;5104923;28;20528;-74
2022/06/04 08:37:52;;;;;;;7.88;4.40;;;;;;;;;;5103056;28;20582;-76
2022/06/04 08:40:32;;;;;;;6.95;3.80;;;;;;;;;;5102517;27;20041;-75
2022/06/04 08:43:24;;;;;;;7.35;4.45;;;;;;;;;;5102788;27;20035;-74
2022/06/04 08:45:49;;;;;;;7.00;4.68;;;;;;;;;;5105002;27;20027;-75
2022/06/04 08:48:27;;;;;;;6.05;4.15;;;;;;;;;;5106533;28;20543;-77
2022/06/04 08:50:54;;;;;;;7.18;4.05;;;;;;;;;;5095937;28;20511;-76
2022/06/04 08:53:24;;;;;;;6.95;4.43;;;;;;;;;;5104500;28;20114;-75
2022/06/04 08:58:55;;;;;;;6.55;4.15;;;;;;;;;;5103308;28;20038;-73
2022/06/04 09:01:23;;;;;;;6.22;4.45;;;;;;;;;;5100448;27;20475;-74
2022/06/04 09:04:02;;;;;;;7.78;4.18;;;;;;;;;;5103003;28;20055;-75
2022/06/04 09:06:37;;;;;;;8.52;4.63;;;;;;;;;;5098892;28;20031;-77
2022/06/04 09:09:17;;;;;;;7.53;4.20;;;;;;;;;;5097804;28;20039;-73
2022/06/04 09:11:57;;;;;;;6.13;4.22;;;;;;;;;;5098290;27;20076;-74
2022/06/04 09:14:50;;;;;;;8.98;5.35;;;;;;;;;;5097956;28;20023;-77
2022/06/04 09:17:21;;;;;;;9.05;5.05;;;;;;;;;;5100627;28;20106;-75
2022/06/04 09:19:51;;;;;;;7.07;4.65;;;;;;;;;;5101762;28;20359;-76
2022/06/04 09:22:24;;;;;;;6.80;4.72;;;;;;;;;;5100355;28;20077;-77
2022/06/04 09:24:49;;;;;;;;;;;;;;;;;;5092910;28;20662;-77
2022/06/04 09:27:38;;;;;;;7.97;4.50;;;;;;;;;;5098145;28;20011;-76
2022/06/04 09:30:20;;;;;;;6.38;4.13;;;;;;;;;;5104612;28;20041;-76
2022/06/04 09:32:59;;;;;;;6.90;4.20;;;;;;;;;;5102601;28;20043;-74
2022/06/04 09:35:37;;;;;;;9.50;4.65;;;;;;;;;;5106460;28;20043;-75
2022/06/04 09:38:03;;;;;;;6.38;4.57;;;;;;;;;;5101818;28;20036;-76
2022/06/04 09:40:31;;;;;;;7.85;4.07;;;;;;;;;;5103590;28;20039;-74
2022/06/04 09:43:24;;;;;;;7.55;4.80;;;;;;;;;;5098667;28;20505;-76
2022/06/04 09:46:00;;;;;;;6.78;4.60;;;;;;;;;;5093849;28;20036;-75
2022/06/04 09:48:31;;;;;;;9.80;4.72;;;;;;;;;;5101909;28;20114;-75
2022/06/04 09:51:01;;;;;;;7.72;5.20;;;;;;;;;;5104251;28;20538;-74
2022/06/04 09:53:30;;;;;;;8.23;4.78;;;;;;;;;;5097074;28;20605;-76
2022/06/04 09:56:25;;;;;;;6.00;4.47;;;;;;;;;;5091698;28;20019;-78
2022/06/04 09:58:51;;;;;;;5.57;4.38;;;;;;;;;;5103867;28;20028;-76
2022/06/04 10:01:16;;;;;;;6.78;4.38;;;;;;;;;;5100869;28;20096;-75
2022/06/04 10:03:43;;;;;;;8.25;4.78;;;;;;;;;;5098058;28;20031;-76
2022/06/04 10:06:12;;;;;;;8.20;4.80;;;;;;;;;;5119132;27;20038;-74
2022/06/04 10:11:33;;;;;;;7.00;4.63;;;;;;;;;;5100508;28;20498;-75
2022/06/04 10:13:59;;;;;;;8.02;4.43;;;;;;;;;;5101107;28;20059;-77
2022/06/04 10:16:28;;;;;;;9.25;4.95;;;;;;;;;;5101980;28;20052;-77
2022/06/04 10:19:00;;;;;;;5.53;4.13;;;;;;;;;;5101688;28;20036;-76
2022/06/04 10:21:36;;;;;;;7.32;4.53;;;;;;;;;;5110923;27;20031;-75
2022/06/04 10:24:20;;;;;;;8.65;5.10;;;;;;;;;;5103991;28;20031;-76
2022/06/04 10:27:22;;;;;;;6.50;4.22;;;;;;;;;;5099204;28;20027;-76
2022/06/04 10:30:06;;;;;;;8.38;4.70;;;;;;;;;;5106021;28;20027;-76
2022/06/04 10:32:40;;;;;;;7.35;4.93;;;;;;;;;;5107933;28;20088;-74
2022/06/04 10:35:19;;;;;;;8.32;4.68;;;;;;;;;;5111760;28;20075;-76
2022/06/04 10:38:01;;;;;;;7.40;4.93;;;;;;;;;;5093917;28;20035;-76
2022/06/04 10:41:02;;;;;;;7.82;4.78;;;;;;;;;;5097185;28;20028;-75
2022/06/04 10:43:52;;;;;;;7.00;4.68;;;;;;;;;;5097489;28;20063;-74
2022/06/04 10:46:36;;;;;;;6.68;4.20;;;;;;;;;;5100296;28;20110;-77
2022/06/04 10:49:39;;;;;;;6.85;4.30;;;;;;;;;;5098002;28;20471;-77
2022/06/04 10:52:25;;;;;;;7.97;4.93;;;;;;;;;;5099810;28;20024;-74
2022/06/04 10:55:07;;;;;;;8.60;4.95;;;;;;;;;;5104434;28;20268;-75
2022/06/04 10:57:52;;;;;;;7.03;5.07;;;;;;;;;;5106185;28;20027;-75
2022/06/04 11:00:20;;;;;;;6.93;4.10;;;;;;;;;;5102777;28;20498;-76
2022/06/04 11:02:56;;;;;;;6.57;4.55;;;;;;;;;;5102217;28;20024;-75
2022/06/04 11:05:30;;;;;;;7.85;4.95;;;;;;;;;;5100215;28;20028;-74
2022/06/04 11:08:15;;;;;;;8.20;4.97;;;;;;;;;;5109063;27;20024;-77
2022/06/04 11:10:53;;;;;;;6.30;4.40;;;;;;;;;;5103395;27;21448;-75
2022/06/04 11:13:32;;;;;;;7.13;4.90;;;;;;;;;;5102901;28;20115;-77
2022/06/04 11:16:13;;;;;;;7.00;4.80;;;;;;;;;;5106420;27;20055;-75
2022/06/04 11:18:47;;;;;;;7.38;5.07;;;;;;;;;;5104926;27;20505;-74
2022/06/04 11:21:36;;;;;;;7.22;4.88;;;;;;;;;;5108617;27;20023;-75
2022/06/04 11:24:03;;;;;;;5.60;4.32;;;;;;;;;;5108445;27;20031;-77
2022/06/04 11:26:38;;;;;;;8.60;4.90;;;;;;;;;;5105221;27;20023;-75
2022/06/04 11:29:05;;;;;;;6.35;4.68;;;;;;;;;;5104183;27;20036;-76
2022/06/04 11:31:51;;;;;;;7.47;5.18;;;;;;;;;;5102505;27;20053;-77
2022/06/04 11:34:38;;;;;;;7.25;4.22;;;;;;;;;;5106676;27;20511;-74
2022/06/04 11:37:27;;;;;;;5.82;4.00;;;;;;;;;;5108035;28;20507;-74
2022/06/04 11:40:04;;;;;;;8.48;4.60;;;;;;;;;;5103106;28;20115;-77
2022/06/04 11:42:58;;;;;;;7.13;4.40;;;;;;;;;;5106528;28;20039;-76
2022/06/04 11:46:00;;;;;;;6.65;4.45;;;;;;;;;;5100127;28;20045;-76
2022/06/04 11:48:26;;;;;;;6.43;4.53;;;;;;;;;;5100899;28;20020;-76
2022/06/04 11:51:10;;;;;;;7.47;4.32;;;;;;;;;;5103351;28;20031;-76
2022/06/04 11:53:36;;;;;;;7.82;4.40;;;;;;;;;;5103474;28;20019;-77
2022/06/04 11:56:13;;;;;;;7.97;4.15;;;;;;;;;;5103944;28;20040;-76
2022/06/04 11:58:56;;;;;;;5.65;4.13;;;;;;;;;;5106981;28;20035;-76
2022/06/04 12:01:38;;;;;;;7.40;4.32;;;;;;;;;;5109086;27;20032;-74
2022/06/04 12:04:24;;;;;;;8.53;4.10;;;;;;;;;;5099993;28;20028;-75
2022/06/04 12:06:56;;;;;;;6.35;4.22;;;;;;;;;;5073160;28;20039;-77
2022/06/04 12:09:50;;;;;;;7.65;4.30;;;;;;;;;;5103933;28;20036;-77
2022/06/04 12:12:29;;;;;;;6.85;4.13;;;;;;;;;;5079762;28;20092;-77
2022/06/04 12:15:13;;;;;;;7.82;4.03;;;;;;;;;;5109159;28;20066;-77
2022/06/04 12:17:47;;;;;;;;;;;;;;;;;;5106905;28;20092;-77
2022/06/04 12:26:23;;;;;;;10.85;4.03;;;;;;;;;;5096483;28;20137;-77
2022/06/04 12:28:49;;;;;;;7.30;4.35;;;;;;;;;;5106916;28;20039;-74
2022/06/04 12:31:30;;;;;;;5.63;4.07;;;;;;;;;;5104582;28;20076;-74
2022/06/04 12:33:56;;;;;;;5.75;4.60;;;;;;;;;;5098163;27;20104;-74
2022/06/04 12:36:37;;;;;;;5.82;4.28;;;;;;;;;;5101495;28;20102;-76
2022/06/04 12:39:19;;;;;;;9.60;5.05;;;;;;;;;;5098360;28;20028;-75
2022/06/04 12:41:49;;;;;;;5.70;4.30;;;;;;;;;;5094061;28;20024;-74
2022/06/04 12:44:26;;;;;;;8.02;4.55;;;;;;;;;;5103386;28;20501;-75
2022/06/04 12:46:54;;;;;;;5.05;3.80;;;;;;;;;;5105833;27;20031;-75
2022/06/04 12:49:40;;;;;;;5.75;3.92;;;;;;;;;;5101964;28;20031;-75
2022/06/04 12:52:40;;;;;;;6.82;3.95;;;;;;;;;;5076655;28;20494;-74
2022/06/04 12:55:28;;;;;;;6.78;4.43;;;;;;;;;;5100525;28;20028;-77
2022/06/04 12:58:26;;;;;;;6.00;3.85;;;;;;;;;;5106149;28;20508;-75
2022/06/04 13:00:57;;;;;;;7.03;3.53;;;;;;;;;;5091280;27;20043;-77
2022/06/04 13:03:29;;;;;;;6.25;3.38;;;;;;;;;;5105848;28;20038;-75
2022/06/04 13:06:12;;;;;;;5.00;3.80;;;;;;;;;;5102751;28;20401;-74
2022/06/04 13:08:46;;;;;;;6.10;4.10;;;;;;;;;;5103970;27;20823;-77
2022/06/04 13:11:25;;;;;;;5.80;3.80;;;;;;;;;;5104925;28;20038;-75
2022/06/04 13:13:56;;;;;;;6.10;3.70;;;;;;;;;;5103077;28;20066;-77
2022/06/04 13:16:27;;;;;;;6.25;3.53;;;;;;;;;;5101707;28;20040;-75
2022/06/04 13:19:27;;;;;;;5.53;3.50;;;;;;;;;;5101073;28;20062;-74
2022/06/04 13:21:52;;;;;;;6.45;4.07;;;;;;;;;;5070637;28;20144;-76
2022/06/04 13:24:21;;;;;;;7.15;3.60;;;;;;;;;;5099064;27;20110;-76
2022/06/04 13:27:02;;;;;;;5.40;3.40;;;;;;;;;;5094421;27;20126;-76
2022/06/04 13:29:35;;;;;;;5.35;3.42;;;;;;;;;;5096823;27;20027;-76
2022/06/04 13:32:15;;;;;;;5.43;3.17;;;;;;;;;;5100292;28;20502;-74
2022/06/04 13:34:41;;;;;;;5.40;3.25;;;;;;;;;;5102901;27;20127;-75
2022/06/04 13:37:18;;;;;;;6.88;3.38;;;;;;;;;;5097050;28;20062;-75
2022/06/04 13:39:46;;;;;;;5.00;3.20;;;;;;;;;;5094430;27;20092;-75
2022/06/04 13:42:17;;;;;;;8.82;3.78;;;;;;;;;;5096731;27;20097;-73
2022/06/04 13:44:51;;;;;;;4.53;3.50;;;;;;;;;;5098269;28;20046;-72
2022/06/04 13:47:20;;;;;;;4.15;3.08;;;;;;;;;;5100368;27;20031;-72
2022/06/04 13:50:06;;;;;;;4.70;3.30;;;;;;;;;;5103114;28;20061;-73
2022/06/04 13:52:52;;;;;;;6.28;3.55;;;;;;;;;;5103218;27;20038;-73
2022/06/04 13:55:35;;;;;;;5.43;3.15;;;;;;;;;;5100281;28;20031;-71
2022/06/04 13:58:13;;;;;;;5.55;3.33;;;;;;;;;;5102112;27;20451;-70
2022/06/04 14:00:40;;;;;;;5.85;3.45;;;;;;;;;;5100522;28;20032;-72
2022/06/04 14:03:15;;;;;;;5.35;3.65;;;;;;;;;;5102561;27;20066;-74
2022/06/04 14:05:44;;;;;;;6.20;3.40;;;;;;;;;;5101978;28;20382;-71
2022/06/04 14:08:20;;;;;;;8.40;3.33;;;;;;;;;;5104918;28;20030;-70
2022/06/04 14:11:01;;;;;;;4.68;3.78;;;;;;;;;;5102187;27;20493;-71
2022/06/04 14:13:55;;;;;;;4.88;3.63;;;;;;;;;;5104531;28;20023;-71
2022/06/04 14:16:33;;;;;;;5.75;3.47;;;;;;;;;;5099444;28;20104;-70
2022/06/04 14:19:36;;;;;;;5.60;3.63;;;;;;;;;;5107241;28;20039;-72
2022/06/04 14:22:13;;;;;;;5.88;3.95;;;;;;;;;;5099061;28;20118;-74
2022/06/04 14:24:53;;;;;;;5.13;3.45;;;;;;;;;;5100484;27;20031;-72
2022/06/04 14:27:38;;;;;;;4.45;3.13;;;;;;;;;;5101029;28;20042;-71
2022/06/04 14:30:16;;;;;;;4.15;3.10;;;;;;;;;;5105162;28;20054;-73
2022/06/04 14:32:46;;;;;;;5.88;3.95;;;;;;;;;;5099120;28;20024;-71
2022/06/04 14:35:21;;;;;;;6.53;3.95;;;;;;;;;;5098743;28;20067;-73
2022/06/04 14:37:49;;;;;;;6.95;3.83;;;;;;;;;;5102289;28;20030;-71
2022/06/04 14:40:18;;;;;;;6.13;3.45;;;;;;;;;;5098203;28;20107;-72
2022/06/04 14:42:59;;;;;;;4.78;3.20;;;;;;;;;;5101286;28;20027;-70
2022/06/04 14:45:36;;;;;;;4.20;3.20;;;;;;;;;;5099800;27;20051;-73
2022/06/04 14:48:59;;;;;;;5.13;3.40;;;;;;;;;;5101053;27;20035;-71
2022/06/04 14:51:40;;;;;;;7.95;4.53;;;;;;;;;;5072858;27;20043;-70
2022/06/04 14:54:06;;;;;;;6.72;3.70;;;;;;;;;;5101208;27;20483;-72
2022/06/04 14:57:09;;;;;;;4.93;3.58;;;;;;;;;;5098538;27;20032;-73
2022/06/04 14:59:49;;;;;;;5.57;3.70;;;;;;;;;;5099576;27;20042;-73
2022/06/04 15:02:52;;;;;;;3.92;2.85;;;;;;;;;;5101455;28;20764;-70
2022/06/04 15:05:17;;;;;;;7.43;3.70;;;;;;;;;;5107329;28;20050;-74
2022/06/04 15:08:02;;;;;;;5.35;3.58;;;;;;;;;;5107851;28;20023;-72
2022/06/04 15:10:42;;;;;;;4.55;2.97;;;;;;;;;;5100656;27;20495;-73
2022/06/04 15:13:13;;;;;;;4.30;3.22;;;;;;;;;;5101817;27;20100;-72
2022/06/04 15:16:08;;;;;;;7.03;3.42;;;;;;;;;;5099373;27;20379;-73
2022/06/04 15:18:39;;;;;;;5.07;3.20;;;;;;;;;;5101898;27;20031;-70
2022/06/04 15:21:19;;;;;;;4.78;2.92;;;;;;;;;;5100283;27;20034;-73
2022/06/04 15:24:16;;;;;;;4.35;2.92;;;;;;;;;;5098659;27;20059;-73
2022/06/04 15:27:08;;;;;;;5.35;3.25;;;;;;;;;;5049050;28;20714;-72
2022/06/04 15:35:34;;;;;;;5.75;3.75;;;;;;;;;;5088341;28;20109;-73
2022/06/04 15:38:12;;;;;;;7.93;3.47;;;;;;;;;;5089035;28;20027;-73
2022/06/04 15:41:10;;;;;;;4.20;3.00;;;;;;;;;;5096287;28;20229;-72
2022/06/04 15:43:36;;;;;;;5.43;3.30;;;;;;;;;;5081209;28;20151;-70
2022/06/04 15:46:22;;;;;;;4.80;2.90;;;;;;;;;;5090442;28;20059;-72